Terminal Aerodrome Forecast
Issued by NWS

Current Version | Previous Version | Graphics & Text | Print | Product List | Glossary On
Versions: 1 2 3 4 5 6 7 8 9 10 11 12 13 14 15 16 17 18 19 20 21 22 23 24 25 26 27 28 29 30 31 32 33 34
000
FTUS41 KRNK 140539
TAFLWB
TAF
KLWB 140539Z 1406/1506 27013G24KT P6SM VCSH OVC040
      TEMPO 1407/1408 4SM -SHSN OVC025
     FM140800 27014G26KT P6SM BKN035
      TEMPO 1408/1411 2SM -SHSN OVC007
     FM141100 28014G27KT P6SM VCSH BKN025
     FM141200 28014G27KT P6SM BKN020
     FM141600 30012G23KT P6SM BKN035
     FM141800 30009KT P6SM BKN030
     FM142200 30006KT P6SM BKN045
     FM150200 00000KT P6SM BKN200=

USA.gov is the U.S. government's official web portal to all federal, state and local government web resources and services.